Time;durP1;ratioP1;P1;durP2;ratioP2;P2;SDS_P1;SDS_P2;PMS_P1;PMS_P2;Temp;Humidity;BMP_temperature;BMP_pressure;BME280_temperature;BME280_humidity;BME280_pressure;Samples;Min_cycle;Max_cycle;Signal;HPM_P1;HPM_P2
2022/05/23 00:03:28;;;;;;;6.88;4.10;;;;;;;7.85;78.41;99150.91;8204554;28;20526;-72
2022/05/23 00:07:32;;;;;;;6.72;4.05;;;;;;;7.75;78.58;99161.81;8204462;28;20043;-71
2022/05/23 00:11:33;;;;;;;6.63;4.10;;;;;;;7.69;78.72;99152.22;8203878;28;20134;-72
2022/05/23 00:15:34;;;;;;;8.23;3.80;;;;;;;7.63;78.82;99158.72;8203844;28;20055;-72
2022/05/23 00:19:35;;;;;;;6.75;4.78;;;;;;;7.57;78.78;99154.50;8204364;28;20055;-72
2022/05/23 00:23:36;;;;;;;6.60;3.80;;;;;;;7.54;78.62;99155.09;8203720;28;20530;-73
2022/05/23 00:27:40;;;;;;;7.72;3.72;;;;;;;7.49;78.57;99152.47;8217750;28;20047;-72
2022/05/23 00:35:17;;;;;;;6.35;3.72;;;;;;;7.44;78.79;99155.22;8202768;28;20051;-72
2022/05/23 00:36:02;;;;;;;9.55;4.03;;;;;;;7.41;78.68;99150.38;8202633;28;20049;-72
2022/05/23 00:40:04;;;;;;;10.93;4.40;;;;;;;7.37;78.65;99144.00;8202888;28;20405;-74
2022/05/23 00:44:05;;;;;;;8.32;4.32;;;;;;;7.33;78.78;99142.97;8200462;28;20051;-72
2022/05/23 00:48:06;;;;;;;11.95;5.38;;;;;;;7.33;79.08;99137.59;8203212;28;20476;-72
2022/05/23 00:52:10;;;;;;;8.75;4.25;;;;;;;7.29;79.22;99131.22;8202974;28;20499;-72
2022/05/23 00:56:11;;;;;;;6.15;3.55;;;;;;;7.22;79.30;99137.72;8201597;28;20420;-73
2022/05/23 01:00:12;;;;;;;7.80;3.50;;;;;;;7.15;79.49;99126.50;8198119;28;20058;-72
2022/05/23 01:04:13;;;;;;;9.40;4.50;;;;;;;7.16;79.24;99120.06;8197536;29;20059;-72
2022/05/23 01:08:16;;;;;;;14.45;6.20;;;;;;;7.15;79.67;99114.97;8198822;28;20082;-73
2022/05/23 01:12:16;;;;;;;8.73;4.75;;;;;;;7.12;79.96;99121.72;8198766;28;20051;-72
2022/05/23 01:16:18;;;;;;;10.35;3.95;;;;;;;7.07;79.88;99119.09;8198105;28;20067;-72
2022/05/23 01:20:19;;;;;;;9.15;4.00;;;;;;;7.00;80.21;99112.44;8182096;29;20062;-72
2022/05/23 01:24:45;;;;;;;7.15;4.28;;;;;;;6.94;80.21;99118.94;8197871;28;20059;-72
2022/05/23 01:28:46;;;;;;;3.90;3.33;;;;;;;6.87;80.03;99113.94;8179522;29;20051;-71
2022/05/23 01:32:47;;;;;;;6.63;3.92;;;;;;;6.78;80.14;99120.97;8201709;28;20155;-72
2022/05/23 01:36:48;;;;;;;6.50;3.95;;;;;;;6.78;80.23;99110.25;8201560;28;20043;-72
2022/05/23 01:40:49;;;;;;;7.28;3.78;;;;;;;6.74;80.27;99119.97;8201818;28;20459;-73
2022/05/23 01:44:50;;;;;;;8.15;4.38;;;;;;;6.75;80.47;99110.81;8214903;28;20043;-72
2022/05/23 01:48:51;;;;;;;5.28;3.53;;;;;;;6.72;80.64;99106.00;8200119;29;20043;-72
2022/05/23 01:52:52;;;;;;;7.00;3.75;;;;;;;6.68;80.72;99094.25;8200544;28;20404;-73
2022/05/23 01:56:53;;;;;;;7.43;3.67;;;;;;;6.67;80.78;99084.59;8183350;29;20065;-72
2022/05/23 02:01:13;;;;;;;5.80;3.53;;;;;;;6.66;80.70;99083.78;8200497;28;20039;-72
2022/05/23 02:05:15;;;;;;;;;;;;;;;6.61;80.75;99072.34;8200831;28;20450;-72
2022/05/23 02:09:15;;;;;;;5.70;3.60;;;;;;;6.60;80.48;99076.91;8201345;28;19922;-73
2022/05/23 02:13:16;;;;;;;4.60;3.70;;;;;;;6.60;80.42;99076.09;8200545;28;20411;-73
2022/05/23 02:17:17;;;;;;;5.28;3.38;;;;;;;6.61;80.51;99072.34;8200166;28;20063;-72
2022/05/23 02:21:18;;;;;;;7.35;4.40;;;;;;;6.65;80.47;99068.00;8198375;28;20043;-72
2022/05/23 02:25:20;;;;;;;10.15;4.88;;;;;;;6.76;80.76;99069.50;8200476;28;20467;-71
2022/05/23 02:29:21;;;;;;;13.27;6.57;;;;;;;6.95;80.98;99070.34;8200090;28;20055;-71
2022/05/23 02:33:21;;;;;;;12.52;7.50;;;;;;;7.20;82.23;99080.78;8198627;28;20082;-72
2022/05/23 02:37:22;;;;;;;9.00;6.75;;;;;;;7.44;82.83;99077.28;8200464;28;20126;-72
2022/05/23 02:41:23;;;;;;;14.13;7.93;;;;;;;7.60;83.16;99073.31;8199187;28;20508;-72
2022/05/23 02:45:24;;;;;;;14.65;8.27;;;;;;;7.74;83.38;99068.81;8199379;28;20063;-72
2022/05/23 02:49:25;;;;;;;15.02;8.77;;;;;;;7.86;83.60;99071.88;8195839;29;20535;-72
2022/05/23 02:53:26;;;;;;;13.65;8.93;;;;;;;7.96;83.93;99066.31;8195169;28;20055;-72
2022/05/23 02:57:27;;;;;;;12.95;7.82;;;;;;;8.04;84.42;99078.28;8195544;28;20138;-73
2022/05/23 03:01:28;;;;;;;16.77;8.73;;;;;;;8.10;84.68;99071.75;8147489;28;20043;-72
2022/05/23 03:05:45;;;;;;;20.35;8.75;;;;;;;8.15;84.99;99084.31;8163630;29;20047;-71
2022/05/23 03:09:47;;;;;;;18.58;9.35;;;;;;;8.18;84.79;99078.38;8179066;29;20511;-72
2022/05/23 03:13:47;;;;;;;16.05;9.27;;;;;;;8.23;85.20;99075.59;8193843;28;20134;-73
2022/05/23 03:17:48;;;;;;;24.75;9.73;;;;;;;8.29;85.19;99085.19;8195226;29;20051;-73
2022/05/23 03:26:58;;;;;;;17.85;9.48;;;;;;;8.33;85.89;99078.16;8199419;28;20106;-71
2022/05/23 03:30:33;;;;;;;19.33;9.82;;;;;;;8.28;86.68;99088.97;8210975;28;20059;-72
2022/05/23 03:34:34;;;;;;;13.43;9.45;;;;;;;8.26;86.55;99097.31;8198082;28;20062;-71
2022/05/23 03:38:35;;;;;;;17.42;10.75;;;;;;;8.26;86.98;99096.53;8211281;28;20079;-72
2022/05/23 03:42:36;;;;;;;20.50;11.73;;;;;;;8.28;86.63;99105.09;8199157;28;20055;-73
2022/05/23 03:46:37;;;;;;;23.77;13.20;;;;;;;8.32;86.78;99111.53;8208848;28;20058;-71
2022/05/23 03:50:38;;;;;;;26.52;13.55;;;;;;;8.37;87.27;99114.13;8202524;28;20559;-72
2022/05/23 03:54:39;;;;;;;21.80;13.13;;;;;;;8.41;86.96;99120.53;8203370;28;20142;-72
2022/05/23 03:58:40;;;;;;;25.30;13.52;;;;;;;8.46;86.92;99123.13;8198699;28;20079;-72
2022/05/23 04:02:42;;;;;;;22.95;13.25;;;;;;;8.50;87.00;99124.16;8195860;28;20543;-72
2022/05/23 04:06:43;;;;;;;23.08;13.63;;;;;;;8.51;87.44;99120.38;8213914;28;20502;-73
2022/05/23 04:10:43;;;;;;;23.23;12.80;;;;;;;8.53;87.47;99112.78;8203463;28;20129;-73
2022/05/23 04:14:44;;;;;;;28.92;13.88;;;;;;;8.56;87.74;99133.75;8168793;28;20070;-72
2022/05/23 04:18:45;;;;;;;18.33;11.73;;;;;;;8.55;88.18;99126.78;8203615;28;20051;-71
2022/05/23 04:22:46;;;;;;;18.95;11.32;;;;;;;8.56;88.81;99133.75;8203999;28;20051;-71
2022/05/23 04:26:55;;;;;;;19.67;11.77;;;;;;;8.63;88.92;99123.38;8217689;28;20511;-71
2022/05/23 04:30:56;;;;;;;26.33;13.85;;;;;;;8.64;89.26;99141.16;8203451;28;20043;-71
2022/05/23 04:35:15;;;;;;;22.83;13.70;;;;;;;8.69;89.22;99138.38;8204082;28;20420;-71
2022/05/23 04:39:17;;;;;;;23.77;13.05;;;;;;;8.78;89.28;99141.97;8215565;28;20420;-71
2022/05/23 04:43:17;;;;;;;22.05;13.82;;;;;;;8.87;88.83;99156.38;8169401;29;20062;-71
2022/05/23 04:51:40;;;;;;;20.30;13.27;;;;;;;8.98;89.19;99161.56;8203059;29;20138;-72
2022/05/23 04:55:43;;;;;;;23.02;11.88;;;;;;;9.04;88.92;99160.41;8203112;28;20051;-72
2022/05/23 04:59:44;;;;;;;20.25;11.68;;;;;;;9.17;88.29;99167.69;8203022;28;20055;-72
2022/05/23 05:03:45;;;;;;;17.98;11.23;;;;;;;9.28;87.63;99171.78;8202756;28;20047;-72
2022/05/23 05:07:46;;;;;;;20.55;10.55;;;;;;;9.30;87.84;99164.22;8216550;28;20082;-73
2022/05/23 05:11:47;;;;;;;20.02;10.30;;;;;;;9.40;87.27;99161.31;8200536;29;20078;-71
2022/05/23 05:15:48;;;;;;;15.50;9.68;;;;;;;9.47;87.25;99159.00;8202638;28;20059;-72
2022/05/23 05:19:49;;;;;;;17.85;8.45;;;;;;;9.60;86.60;99169.00;8202550;28;20526;-71
2022/05/23 05:23:50;;;;;;;14.25;8.63;;;;;;;9.72;86.18;99172.00;8216130;28;20055;-72
2022/05/23 05:27:51;;;;;;;15.02;8.52;;;;;;;9.89;85.15;99171.34;8215032;28;20110;-73
2022/05/23 05:32:17;;;;;;;14.32;6.97;;;;;;;9.98;84.30;99168.75;8201917;28;20448;-73
2022/05/23 05:36:23;;;;;;;17.90;7.78;;;;;;;10.05;83.26;99163.72;8202057;28;20134;-72
2022/05/23 05:40:26;;;;;;;16.25;8.07;;;;;;;10.08;82.80;99168.53;8200847;28;20059;-72
2022/05/23 05:44:30;;;;;;;11.05;7.15;;;;;;;10.11;82.23;99162.53;8200154;29;20065;-72
2022/05/23 05:48:31;;;;;;;16.15;7.50;;;;;;;10.23;81.68;99162.81;8201457;28;20051;-72
2022/05/23 05:52:33;;;;;;;17.13;7.70;;;;;;;10.36;81.47;99153.91;8231529;28;20158;-72
2022/05/23 05:56:34;;;;;;;11.10;6.70;;;;;;;10.48;80.55;99151.44;8201495;28;20063;-72
2022/05/23 06:00:35;;;;;;;12.73;6.88;;;;;;;10.65;80.05;99134.56;8201353;28;20050;-72
2022/05/23 06:04:36;;;;;;;16.00;6.43;;;;;;;10.83;79.27;99141.66;8198760;29;20137;-72
2022/05/23 06:12:56;;;;;;;10.35;4.30;;;;;;;11.08;75.69;99153.72;8200978;29;20487;-71
2022/05/23 06:16:57;;;;;;;13.10;4.07;;;;;;;11.17;74.73;99143.72;8200758;28;20143;-71
2022/05/23 06:20:58;;;;;;;8.52;4.53;;;;;;;11.30;73.49;99140.16;8200633;28;20055;-72
2022/05/23 06:25:02;;;;;;;7.45;4.85;;;;;;;11.35;72.95;99137.31;8214287;28;20059;-73
2022/05/23 06:29:02;;;;;;;8.23;4.97;;;;;;;11.47;73.18;99138.63;8198260;29;20051;-72
2022/05/23 06:33:04;;;;;;;7.38;4.60;;;;;;;11.66;72.67;99141.84;8200539;28;20520;-72
2022/05/23 06:37:05;;;;;;;11.43;5.28;;;;;;;11.73;72.63;99137.59;8213793;28;20055;-72
2022/05/23 06:41:09;;;;;;;10.13;5.45;;;;;;;11.88;72.35;99139.06;8199759;28;20051;-72
2022/05/23 06:45:10;;;;;;;15.65;5.55;;;;;;;11.98;72.27;99133.34;8200010;28;20435;-71
2022/05/23 06:49:11;;;;;;;17.08;5.63;;;;;;;12.07;72.03;99131.44;8200044;28;20078;-72
2022/05/23 06:53:12;;;;;;;9.07;5.70;;;;;;;12.22;71.85;99133.66;8199846;28;20098;-72
2022/05/23 06:57:13;;;;;;;16.90;6.10;;;;;;;12.33;71.44;99127.91;8200407;28;20063;-73
2022/05/23 07:01:14;;;;;;;10.63;4.97;;;;;;;12.44;71.40;99129.19;8199640;28;20087;-72
2022/05/23 07:13:55;;;;;;;8.43;4.85;;;;;;;12.91;69.34;99128.16;8199660;28;20043;-72
2022/05/23 07:17:56;;;;;;;9.82;5.15;;;;;;;13.01;69.58;99116.16;8199546;28;20135;-72
2022/05/23 07:21:59;;;;;;;8.88;4.45;;;;;;;13.17;69.23;99113.72;8213234;28;20051;-72
2022/05/23 07:26:08;;;;;;;11.50;5.07;;;;;;;13.29;69.32;99105.72;8199438;28;20187;-73
2022/05/23 07:30:09;;;;;;;9.95;4.72;;;;;;;13.45;68.57;99109.47;8198065;29;20047;-72
2022/05/23 07:34:10;;;;;;;11.30;4.70;;;;;;;13.54;67.95;99102.06;8198121;28;20151;-72
2022/05/23 07:38:13;;;;;;;12.40;5.28;;;;;;;13.62;67.31;99093.09;8212809;28;20059;-72
2022/05/23 07:42:14;;;;;;;15.48;6.50;;;;;;;13.75;67.31;99092.03;8198854;28;20051;-72
2022/05/23 07:46:15;;;;;;;9.57;5.53;;;;;;;13.90;66.73;99077.91;8198974;28;20047;-71
2022/05/23 07:50:17;;;;;;;9.10;4.50;;;;;;;14.06;66.10;99082.75;8199663;28;20043;-72
2022/05/23 08:02:57;;;;;;;8.13;3.60;;;;;;;14.41;64.29;99080.53;8204795;28;19922;-73
2022/05/23 08:06:58;;;;;;;7.55;4.10;;;;;;;14.54;63.02;99080.22;8204654;28;20057;-72
2022/05/23 08:10:59;;;;;;;7.20;3.65;;;;;;;14.70;62.21;99078.47;8200497;28;20427;-73
2022/05/23 08:15:00;;;;;;;7.75;4.20;;;;;;;14.82;62.27;99085.84;8200561;29;20051;-73
2022/05/23 08:19:03;;;;;;;7.50;3.00;;;;;;;15.01;61.85;99077.19;8168592;29;20146;-72
2022/05/23 08:23:05;;;;;;;7.43;3.00;;;;;;;15.19;60.27;99067.66;8200314;29;20051;-73
2022/05/23 08:27:06;;;;;;;7.40;2.70;;;;;;;15.26;60.13;99067.91;8200148;28;20099;-73
2022/05/23 08:31:06;;;;;;;5.65;2.80;;;;;;;15.41;58.72;99069.94;8200033;28;20130;-72
2022/05/23 08:35:08;;;;;;;5.00;3.45;;;;;;;15.49;58.39;99060.84;8168096;28;20051;-72
2022/05/23 08:39:10;;;;;;;8.68;3.63;;;;;;;15.54;57.82;99057.94;8199721;28;20146;-72
2022/05/23 08:43:12;;;;;;;5.43;2.75;;;;;;;15.71;56.97;99056.06;8199668;28;20055;-72
2022/05/23 08:47:27;;;;;;;4.53;2.00;;;;;;;15.92;56.55;99062.16;8200922;28;20138;-72
2022/05/23 08:52:13;;;;;;;7.13;2.47;;;;;;;16.13;55.54;99057.31;8203335;28;20054;-71
2022/05/23 08:56:33;;;;;;;7.13;2.53;;;;;;;16.31;54.52;99045.00;8167648;29;20056;-72
2022/05/23 09:01:04;;;;;;;5.60;2.20;;;;;;;16.47;53.04;99051.28;8167535;29;20051;-72
2022/05/23 09:05:13;;;;;;;2.13;1.67;;;;;;;16.60;53.29;99053.97;8167184;29;20520;-72
2022/05/23 09:09:16;;;;;;;4.53;2.10;;;;;;;16.76;52.91;99046.59;8151657;29;20559;-72
2022/05/23 09:13:22;;;;;;;3.50;1.90;;;;;;;16.90;52.81;99041.50;8167296;29;20095;-72
2022/05/23 09:17:27;;;;;;;7.28;2.45;;;;;;;16.98;51.95;99032.34;8167063;29;20496;-72
2022/05/23 09:25:52;;;;;;;5.18;1.98;;;;;;;17.12;50.58;99038.16;8166477;29;20051;-72
2022/05/23 09:29:55;;;;;;;3.70;2.28;;;;;;;17.23;50.29;99022.03;8167044;29;20089;-71
2022/05/23 09:33:56;;;;;;;3.55;1.88;;;;;;;17.45;50.33;99012.41;8200017;28;20082;-72
2022/05/23 09:38:18;;;;;;;3.45;1.80;;;;;;;17.58;50.06;99011.13;8202060;28;20058;-72
2022/05/23 09:51:19;;;;;;;4.88;1.95;;;;;;;18.05;48.77;99003.56;8201728;29;20130;-72
2022/05/23 09:55:33;;;;;;;4.03;1.90;;;;;;;18.03;45.78;98994.91;8215855;28;20114;-72
2022/05/23 09:59:36;;;;;;;6.32;1.90;;;;;;;17.99;45.98;98999.53;8201405;28;20078;-72
2022/05/23 10:03:50;;;;;;;3.42;1.80;;;;;;;18.23;46.66;98992.19;8184326;28;20055;-72
2022/05/23 10:07:55;;;;;;;2.90;1.80;;;;;;;18.33;46.71;98986.13;8201219;28;20047;-72
2022/05/23 10:12:04;;;;;;;7.43;2.00;;;;;;;18.49;45.12;98978.59;8200891;28;20058;-74
2022/05/23 10:16:18;;;;;;;4.95;1.60;;;;;;;18.58;46.11;98976.44;8199058;28;20051;-72
2022/05/23 10:20:30;;;;;;;4.70;2.10;;;;;;;18.79;46.59;98970.53;8200222;29;20083;-72
2022/05/23 10:24:32;;;;;;;2.20;1.73;;;;;;;18.88;46.32;98969.13;8200792;28;20491;-72
2022/05/23 10:28:36;;;;;;;2.85;1.73;;;;;;;19.05;45.94;98961.56;8200407;28;20051;-73
2022/05/23 10:32:49;;;;;;;3.70;1.77;;;;;;;19.16;45.61;98957.03;8200354;28;20102;-73
2022/05/23 10:36:53;;;;;;;7.88;1.70;;;;;;;19.19;45.22;98953.56;8200230;28;20388;-72
2022/05/23 10:46:01;;;;;;;3.30;1.85;;;;;;;19.39;44.96;98944.06;8132999;29;20048;-73
2022/05/23 10:50:13;;;;;;;2.63;1.65;;;;;;;19.67;44.45;98949.94;8133114;29;20071;-74
2022/05/23 10:54:20;;;;;;;3.00;1.60;;;;;;;19.77;44.15;98951.25;8117265;29;20055;-73
2022/05/23 10:58:45;;;;;;;2.42;1.30;;;;;;;19.78;43.22;98939.88;8132854;29;20055;-72
2022/05/23 11:03:00;;;;;;;6.18;1.30;;;;;;;19.91;42.91;98925.94;8132634;29;20052;-73
2022/05/23 11:07:07;;;;;;;5.07;1.58;;;;;;;20.01;42.42;98925.28;8132629;29;20432;-73
2022/05/23 11:11:13;;;;;;;4.10;1.80;;;;;;;20.10;42.86;98923.00;8132568;29;20107;-73
2022/05/23 11:15:16;;;;;;;2.05;1.50;;;;;;;20.21;42.32;98918.44;8116825;29;20059;-72
2022/05/23 11:19:28;;;;;;;3.78;1.48;;;;;;;20.22;41.36;98914.53;8132185;29;20052;-72
2022/05/23 11:23:43;;;;;;;3.55;1.60;;;;;;;20.38;41.78;98917.84;8196504;29;20066;-72
2022/05/23 11:36:56;;;;;;;2.70;1.63;;;;;;;20.80;40.49;98900.16;8205630;28;20416;-72
2022/05/23 11:41:06;;;;;;;3.90;1.40;;;;;;;21.01;39.94;98894.81;8205165;28;20051;-72
2022/05/23 11:49:43;;;;;;;3.90;1.65;;;;;;;21.01;40.25;98883.81;8205280;29;20130;-72
2022/05/23 11:54:00;;;;;;;3.63;1.43;;;;;;;21.14;39.37;98871.38;8187100;29;20047;-72
2022/05/23 11:58:40;;;;;;;2.40;1.00;;;;;;;21.46;39.64;98872.31;8205078;28;20464;-73
2022/05/23 12:03:03;;;;;;;2.35;1.40;;;;;;;21.39;39.05;98883.28;8137773;29;20500;-72
2022/05/23 12:07:03;;;;;;;2.30;1.45;;;;;;;21.42;38.73;98877.00;8137442;29;20079;-74
2022/05/23 12:11:21;;;;;;;2.78;1.30;;;;;;;21.61;38.84;98866.88;8137893;29;20481;-73
2022/05/23 12:15:44;;;;;;;1.80;1.40;;;;;;;21.75;38.86;98855.91;8137570;29;20064;-72
2022/05/23 12:19:49;;;;;;;4.22;1.40;;;;;;;21.80;38.84;98852.78;8137150;29;20055;-73
2022/05/23 12:24:21;;;;;;;2.17;1.27;;;;;;;21.70;38.12;98848.03;8136854;29;20078;-73
2022/05/23 12:28:22;;;;;;;2.25;1.20;;;;;;;21.95;37.88;98832.41;8121434;29;20056;-72
2022/05/23 12:32:25;;;;;;;2.70;1.73;;;;;;;22.23;37.88;98843.44;8136808;29;20138;-73
2022/05/23 12:36:26;;;;;;;2.72;1.60;;;;;;;22.19;38.04;98826.16;8136571;29;20040;-74
2022/05/23 12:40:33;;;;;;;2.65;1.38;;;;;;;22.25;36.87;98807.31;8180590;29;20070;-73
2022/05/23 12:45:16;;;;;;;2.35;1.50;;;;;;;22.25;37.09;98813.59;8203616;28;20053;-73
2022/05/23 12:49:39;;;;;;;1.30;1.20;;;;;;;22.41;37.56;98809.66;8136327;29;20048;-72
2022/05/23 12:53:46;;;;;;;4.38;1.65;;;;;;;22.42;37.41;98800.22;8105032;29;20063;-72
2022/05/23 12:58:20;;;;;;;4.07;1.88;;;;;;;21.99;37.70;98794.75;8136231;29;20044;-73
2022/05/23 13:02:45;;;;;;;2.72;1.50;;;;;;;22.33;37.63;98782.13;8136071;29;20564;-72
2022/05/23 13:06:58;;;;;;;2.67;1.23;;;;;;;22.60;37.20;98784.47;8135927;29;20052;-73
2022/05/23 13:11:03;;;;;;;3.22;1.52;;;;;;;22.70;37.54;98778.16;8135703;29;20060;-72
2022/05/23 13:15:04;;;;;;;4.10;1.38;;;;;;;22.51;37.28;98776.63;8104381;29;20076;-73
2022/05/23 13:23:34;;;;;;;1.83;1.30;;;;;;;22.70;37.02;98750.63;8136255;29;20668;-74
2022/05/23 13:27:49;;;;;;;2.15;1.50;;;;;;;22.85;36.36;98754.94;8202327;28;20419;-73
2022/05/23 13:31:58;;;;;;;5.03;1.63;;;;;;;23.19;36.04;98748.91;8185300;28;20583;-72
2022/05/23 13:36:01;;;;;;;4.93;1.50;;;;;;;24.08;35.15;98738.06;8167999;29;20062;-73
2022/05/23 13:40:11;;;;;;;1.77;1.40;;;;;;;24.60;34.29;98742.31;8200775;28;20051;-72
2022/05/23 13:44:27;;;;;;;3.20;1.70;;;;;;;25.22;33.38;98744.00;8202171;28;20047;-72
2022/05/23 13:48:39;;;;;;;7.78;1.38;;;;;;;24.97;33.43;98749.03;8200850;28;20067;-74
2022/05/23 13:53:06;;;;;;;6.47;1.33;;;;;;;24.76;33.63;98728.72;8183765;29;20419;-72
2022/05/23 13:57:13;;;;;;;2.67;1.05;;;;;;;24.69;34.22;98734.31;8201350;28;20058;-73
2022/05/23 14:01:21;;;;;;;12.48;1.40;;;;;;;24.61;34.42;98727.31;8201227;28;20055;-73
2022/05/23 14:05:27;;;;;;;1.80;1.15;;;;;;;24.40;34.42;98716.50;8200969;28;20090;-72
2022/05/23 14:09:28;;;;;;;1.75;1.20;;;;;;;24.06;34.26;98718.41;8201487;28;20484;-73
2022/05/23 14:13:31;;;;;;;7.63;1.45;;;;;;;23.92;34.65;98720.06;8200917;28;20050;-72
2022/05/23 14:17:34;;;;;;;3.83;1.10;;;;;;;23.75;34.55;98723.75;8199592;29;20086;-72
2022/05/23 14:21:37;;;;;;;3.75;1.20;;;;;;;23.35;33.77;98724.41;8199630;28;20077;-72
2022/05/23 14:25:45;;;;;;;3.80;1.55;;;;;;;23.24;34.65;98718.16;8200746;28;20047;-74
2022/05/23 14:29:47;;;;;;;2.25;1.40;;;;;;;24.04;33.89;98720.78;8200441;28;20483;-73
2022/05/23 14:33:57;;;;;;;8.80;1.50;;;;;;;24.90;32.92;98721.50;8214309;28;20053;-73
2022/05/23 14:37:59;;;;;;;1.85;1.10;;;;;;;26.16;31.44;98712.53;8200306;28;20055;-72
2022/05/23 14:42:27;;;;;;;3.47;0.90;;;;;;;27.34;29.57;98722.13;8200048;28;20081;-73
2022/05/23 14:46:32;;;;;;;3.97;1.55;;;;;;;28.43;27.51;98707.56;8200083;28;20134;-73
2022/05/23 14:50:44;;;;;;;1.45;1.10;;;;;;;29.99;25.79;98702.91;8213708;28;20055;-73
2022/05/23 15:03:44;;;;;;;2.35;1.20;;;;;;;33.39;22.40;98694.81;8199762;29;20059;-73
2022/05/23 15:07:45;;;;;;;1.38;1.08;;;;;;;32.50;23.00;98692.47;8213598;28;20059;-74
2022/05/23 15:11:46;;;;;;;1.30;1.10;;;;;;;31.92;23.40;98692.56;8198625;28;20559;-75
2022/05/23 15:15:47;;;;;;;3.42;1.20;;;;;;;30.94;24.27;98677.22;8212875;28;20113;-73
2022/05/23 15:19:48;;;;;;;2.05;1.20;;;;;;;29.53;25.56;98677.34;8203791;28;20039;-73
2022/05/23 15:23:49;;;;;;;2.35;1.10;;;;;;;28.26;27.01;98670.72;8218683;28;20529;-73
2022/05/23 15:27:53;;;;;;;9.82;1.20;;;;;;;27.64;27.61;98664.38;8202802;28;20055;-74
2022/05/23 15:31:55;;;;;;;3.80;1.20;;;;;;;26.90;28.30;98654.97;8195337;28;20046;-73
2022/05/23 15:35:56;;;;;;;4.50;1.30;;;;;;;26.35;28.87;98653.66;8194403;29;20055;-73
2022/05/23 15:39:57;;;;;;;2.83;1.67;;;;;;;25.52;29.55;98649.94;8196034;28;20058;-73
2022/05/23 15:43:58;;;;;;;1.88;1.10;;;;;;;25.05;30.37;98657.38;8189098;28;20531;-73
2022/05/23 15:48:04;;;;;;;3.50;1.20;;;;;;;24.75;31.43;98636.03;8116030;29;20060;-73
2022/05/23 15:52:08;;;;;;;2.10;1.30;;;;;;;24.74;31.87;98637.25;8178145;28;20415;-73
2022/05/23 15:56:11;;;;;;;8.32;1.35;;;;;;;24.76;31.61;98632.06;8183425;28;20055;-74
2022/05/23 16:00:14;;;;;;;3.78;1.60;;;;;;;24.54;32.21;98633.53;8179322;29;20110;-73
2022/05/23 16:04:16;;;;;;;6.38;1.45;;;;;;;24.04;32.63;98632.50;8194826;29;20053;-72
2022/05/23 16:08:18;;;;;;;2.45;1.10;;;;;;;23.90;32.92;98614.13;8195867;29;20102;-73
2022/05/23 16:12:20;;;;;;;4.80;1.30;;;;;;;23.74;33.39;98609.13;8199205;28;20054;-72
2022/05/23 16:16:23;;;;;;;3.00;1.15;;;;;;;23.55;33.56;98618.00;8201573;29;20052;-72
2022/05/23 16:20:27;;;;;;;3.67;1.35;;;;;;;23.42;33.14;98622.41;8204195;28;20496;-72
2022/05/23 16:24:28;;;;;;;3.88;1.40;;;;;;;23.32;33.33;98620.53;8202815;29;20636;-72
2022/05/23 16:28:29;;;;;;;2.90;1.35;;;;;;;23.15;33.94;98617.50;8202579;28;20062;-74
2022/05/23 16:36:50;;;;;;;2.33;1.30;;;;;;;24.62;30.71;98612.94;8201889;28;20426;-74
2022/05/23 16:40:51;;;;;;;3.63;1.30;;;;;;;24.64;31.50;98610.53;8203877;28;20047;-74
2022/05/23 16:44:52;;;;;;;2.35;1.38;;;;;;;23.96;32.01;98609.72;8201823;28;20059;-76
2022/05/23 16:48:53;;;;;;;2.83;1.10;;;;;;;23.24;33.34;98596.97;8168485;28;20043;-74
2022/05/23 16:52:56;;;;;;;3.33;1.45;;;;;;;22.78;34.15;98602.78;8202907;28;20062;-75
2022/05/23 16:56:57;;;;;;;3.67;1.40;;;;;;;22.39;34.44;98602.91;8202021;28;20496;-74
2022/05/23 17:00:58;;;;;;;3.22;1.02;;;;;;;22.10;34.84;98592.00;8216422;28;20407;-74
2022/05/23 17:04:59;;;;;;;3.90;1.50;;;;;;;21.67;35.66;98590.53;8202140;28;20054;-73
2022/05/23 17:09:01;;;;;;;2.53;1.30;;;;;;;21.36;36.10;98587.38;8215601;28;20051;-75
2022/05/23 17:13:02;;;;;;;2.92;1.50;;;;;;;21.17;35.87;98579.53;8201839;28;20058;-73
2022/05/23 17:17:03;;;;;;;4.88;1.40;;;;;;;20.94;36.25;98581.81;8201338;28;20051;-73
2022/05/23 17:21:05;;;;;;;3.65;1.83;;;;;;;20.78;36.64;98573.19;8196102;29;20047;-73
2022/05/23 17:25:06;;;;;;;4.10;2.20;;;;;;;20.61;37.22;98564.53;8201547;28;20062;-73
2022/05/23 17:29:07;;;;;;;2.42;1.20;;;;;;;20.42;37.20;98564.84;8202107;28;20071;-74
2022/05/23 17:33:10;;;;;;;3.88;1.55;;;;;;;20.11;37.44;98568.22;8200457;28;20514;-73
2022/05/23 17:37:11;;;;;;;2.45;1.23;;;;;;;19.94;37.59;98555.22;8201424;28;20492;-72
2022/05/23 17:41:12;;;;;;;3.95;1.40;;;;;;;19.70;38.51;98557.44;8201948;28;20419;-72
2022/05/23 17:45:15;;;;;;;1.73;1.20;;;;;;;19.49;38.89;98560.03;8200250;28;20049;-73
2022/05/23 17:49:16;;;;;;;6.65;1.80;;;;;;;19.32;39.38;98555.19;8201562;28;20071;-72
2022/05/23 17:53:17;;;;;;;3.25;1.30;;;;;;;19.19;39.31;98562.13;8200045;28;20055;-73
2022/05/23 17:57:18;;;;;;;3.90;1.38;;;;;;;19.01;39.93;98555.72;8200173;28;20078;-73
2022/05/23 18:01:21;;;;;;;5.88;1.50;;;;;;;18.88;40.21;98553.25;8197869;28;20085;-73
2022/05/23 18:05:25;;;;;;;3.53;1.55;;;;;;;18.74;40.59;98553.13;8200465;28;20043;-73
2022/05/23 18:09:26;;;;;;;2.13;1.48;;;;;;;18.54;40.86;98540.81;8201383;28;20055;-72
2022/05/23 18:13:27;;;;;;;3.92;1.90;;;;;;;18.39;41.09;98544.50;8201539;28;20491;-72
2022/05/23 18:22:09;;;;;;;4.53;2.15;;;;;;;18.06;41.54;98540.63;8133719;29;20126;-73
2022/05/23 18:26:10;;;;;;;3.58;1.48;;;;;;;17.93;41.42;98550.19;8133926;29;20452;-73
2022/05/23 18:30:13;;;;;;;2.63;1.55;;;;;;;17.78;41.55;98545.69;8133614;29;20061;-73
2022/05/23 18:34:14;;;;;;;2.53;1.65;;;;;;;17.64;41.46;98540.03;8132983;29;20513;-73
2022/05/23 18:38:15;;;;;;;6.85;1.85;;;;;;;17.46;41.84;98538.97;8117325;29;20417;-73
2022/05/23 18:42:16;;;;;;;4.75;1.65;;;;;;;17.29;41.82;98548.44;8116516;29;20148;-73
2022/05/23 18:46:17;;;;;;;5.55;1.83;;;;;;;17.17;42.21;98544.00;8131156;29;20056;-73
2022/05/23 18:50:18;;;;;;;4.57;2.03;;;;;;;17.05;42.23;98546.13;8135126;29;20449;-74
2022/05/23 18:54:19;;;;;;;5.55;1.55;;;;;;;16.96;42.43;98532.72;8187352;28;20502;-74
2022/05/23 18:58:20;;;;;;;9.18;2.13;;;;;;;16.84;42.58;98533.69;8200027;28;20055;-72
2022/05/23 19:02:24;;;;;;;4.90;1.95;;;;;;;16.72;42.75;98530.34;8195681;28;20154;-71
2022/05/23 19:06:25;;;;;;;5.72;1.90;;;;;;;16.62;42.94;98533.69;8200963;28;20504;-73
2022/05/23 19:10:28;;;;;;;3.65;2.03;;;;;;;16.51;43.07;98538.13;8199370;28;20488;-72
2022/05/23 19:14:31;;;;;;;7.90;2.42;;;;;;;16.39;43.48;98537.13;8198827;28;20084;-72
2022/05/23 19:18:34;;;;;;;9.00;2.83;;;;;;;16.32;43.55;98531.56;8198104;28;20039;-72
2022/05/23 19:22:35;;;;;;;7.20;4.00;;;;;;;16.24;43.77;98524.38;8196229;28;20054;-72
2022/05/23 19:26:40;;;;;;;5.15;2.20;;;;;;;16.22;44.24;98520.44;8190897;28;20103;-73
2022/05/23 19:30:41;;;;;;;5.05;2.55;;;;;;;16.13;44.22;98523.38;8181614;28;20051;-72
2022/05/23 19:34:44;;;;;;;3.85;2.42;;;;;;;16.05;44.68;98521.66;8192824;28;20134;-72
2022/05/23 19:38:45;;;;;;;7.18;2.20;;;;;;;15.97;45.04;98526.16;8150768;29;20071;-72
2022/05/23 19:42:47;;;;;;;7.70;2.30;;;;;;;15.88;45.42;98516.66;8176957;28;20055;-72
2022/05/23 19:46:49;;;;;;;4.10;2.60;;;;;;;15.82;45.75;98523.50;8188269;28;20539;-72
2022/05/23 19:50:51;;;;;;;6.68;2.78;;;;;;;15.72;46.22;98540.41;8195955;28;20051;-72
2022/05/23 19:54:52;;;;;;;6.90;2.60;;;;;;;15.65;46.61;98537.56;8190316;28;20177;-73
2022/05/23 19:58:54;;;;;;;6.25;2.65;;;;;;;15.59;47.31;98526.94;8190592;29;20336;-72
2022/05/23 20:07:15;;;;;;;5.93;2.63;;;;;;;15.42;47.88;98527.28;8191103;29;20084;-72
2022/05/23 20:11:17;;;;;;;4.50;2.80;;;;;;;15.35;48.43;98527.13;8190082;28;20040;-73
2022/05/23 20:15:23;;;;;;;4.65;2.58;;;;;;;15.33;48.70;98518.53;8187605;28;20146;-72
2022/05/23 20:19:28;;;;;;;6.70;2.58;;;;;;;15.29;49.10;98517.66;8187600;28;20043;-71
2022/05/23 20:23:29;;;;;;;5.25;3.25;;;;;;;15.22;49.46;98512.06;8204601;28;20051;-72
2022/05/23 20:27:30;;;;;;;3.70;2.50;;;;;;;15.16;49.87;98513.47;8180479;28;20051;-72
2022/05/23 20:31:32;;;;;;;10.05;3.13;;;;;;;15.06;50.30;98508.56;8199918;28;20039;-73
2022/05/23 20:35:33;;;;;;;7.30;3.20;;;;;;;15.02;50.42;98496.81;8189564;29;20083;-72
2022/05/23 20:39:36;;;;;;;4.45;2.60;;;;;;;15.00;51.08;98504.53;8196302;28;20086;-71
2022/05/23 20:43:39;;;;;;;9.40;3.17;;;;;;;14.96;51.27;98492.78;8189258;29;20056;-72